sensor_id;sensor_type;location;lat;lon;timestamp;pressure;altitude;pressure_sealevel;temperature;humidity
46714;BME280;32445;51.376;10.874;2023-01-29T00:01:09;100646.13;;;-0.68;55.88
46714;BME280;32445;51.376;10.874;2023-01-29T00:04:10;100637.50;;;-0.72;55.40
46714;BME280;32445;51.376;10.874;2023-01-29T00:07:10;100629.69;;;-0.75;55.89
46714;BME280;32445;51.376;10.874;2023-01-29T00:10:10;100624.44;;;-0.79;55.62
46714;BME280;32445;51.376;10.874;2023-01-29T00:13:11;100628.63;;;-0.81;55.68
46714;BME280;32445;51.376;10.874;2023-01-29T00:16:11;100612.31;;;-0.85;55.52
46714;BME280;32445;51.376;10.874;2023-01-29T00:19:12;100617.31;;;-0.88;55.42
46714;BME280;32445;51.376;10.874;2023-01-29T00:22:15;100612.97;;;-0.91;55.86
46714;BME280;32445;51.376;10.874;2023-01-29T00:25:15;100615.41;;;-0.94;55.62
46714;BME280;32445;51.376;10.874;2023-01-29T00:28:16;100607.63;;;-0.97;55.64
46714;BME280;32445;51.376;10.874;2023-01-29T00:31:20;100619.47;;;-0.99;55.44
46714;BME280;32445;51.376;10.874;2023-01-29T00:34:21;100618.53;;;-1.01;56.07
46714;BME280;32445;51.376;10.874;2023-01-29T00:37:22;100616.66;;;-1.05;55.77
46714;BME280;32445;51.376;10.874;2023-01-29T00:40:23;100604.66;;;-1.08;55.74
46714;BME280;32445;51.376;10.874;2023-01-29T00:43:24;100604.56;;;-1.11;56.06
46714;BME280;32445;51.376;10.874;2023-01-29T00:46:44;100601.03;;;-1.14;55.72
46714;BME280;32445;51.376;10.874;2023-01-29T00:49:44;100599.16;;;-1.18;55.80
46714;BME280;32445;51.376;10.874;2023-01-29T00:52:44;100589.72;;;-1.21;55.91
46714;BME280;32445;51.376;10.874;2023-01-29T00:55:45;100590.41;;;-1.25;55.89
46714;BME280;32445;51.376;10.874;2023-01-29T00:58:45;100585.19;;;-1.28;55.72
46714;BME280;32445;51.376;10.874;2023-01-29T01:01:46;100588.47;;;-1.31;55.76
46714;BME280;32445;51.376;10.874;2023-01-29T01:05:06;100581.53;;;-1.35;56.12
46714;BME280;32445;51.376;10.874;2023-01-29T01:08:09;100575.53;;;-1.37;55.93
46714;BME280;32445;51.376;10.874;2023-01-29T01:11:32;100583.84;;;-1.41;56.01
46714;BME280;32445;51.376;10.874;2023-01-29T01:14:33;100581.25;;;-1.43;55.94
46714;BME280;32445;51.376;10.874;2023-01-29T01:17:35;100578.56;;;-1.46;56.18
46714;BME280;32445;51.376;10.874;2023-01-29T01:20:35;100580.94;;;-1.50;55.93
46714;BME280;32445;51.376;10.874;2023-01-29T01:23:36;100582.47;;;-1.54;56.19
46714;BME280;32445;51.376;10.874;2023-01-29T01:26:36;100580.69;;;-1.57;56.13
46714;BME280;32445;51.376;10.874;2023-01-29T01:29:37;100580.56;;;-1.60;55.92
46714;BME280;32445;51.376;10.874;2023-01-29T01:32:38;100573.59;;;-1.64;56.28
46714;BME280;32445;51.376;10.874;2023-01-29T01:35:39;100574.28;;;-1.68;55.94
46714;BME280;32445;51.376;10.874;2023-01-29T01:38:40;100570.75;;;-1.71;56.46
46714;BME280;32445;51.376;10.874;2023-01-29T01:41:44;100577.44;;;-1.74;55.80
46714;BME280;32445;51.376;10.874;2023-01-29T01:44:55;100588.25;;;-1.79;56.15
46714;BME280;32445;51.376;10.874;2023-01-29T01:48:04;100584.66;;;-1.84;55.95
46714;BME280;32445;51.376;10.874;2023-01-29T01:51:06;100597.25;;;-1.87;56.04
46714;BME280;32445;51.376;10.874;2023-01-29T01:54:14;100594.50;;;-1.92;55.92
46714;BME280;32445;51.376;10.874;2023-01-29T01:57:19;100588.50;;;-1.94;55.98
46714;BME280;32445;51.376;10.874;2023-01-29T02:00:25;100594.31;;;-1.97;56.23
46714;BME280;32445;51.376;10.874;2023-01-29T02:03:27;100585.69;;;-2.00;56.05
46714;BME280;32445;51.376;10.874;2023-01-29T02:06:49;100592.31;;;-2.04;55.71
46714;BME280;32445;51.376;10.874;2023-01-29T02:10:12;100579.47;;;-2.07;56.01
46714;BME280;32445;51.376;10.874;2023-01-29T02:13:15;100575.13;;;-2.10;56.22
46714;BME280;32445;51.376;10.874;2023-01-29T02:16:22;100574.13;;;-2.13;56.01
46714;BME280;32445;51.376;10.874;2023-01-29T02:19:46;100588.38;;;-2.17;55.91
46714;BME280;32445;51.376;10.874;2023-01-29T02:33:01;100581.22;;;-2.26;56.00
46714;BME280;32445;51.376;10.874;2023-01-29T02:39:34;100575.88;;;-2.32;55.98
46714;BME280;32445;51.376;10.874;2023-01-29T02:42:43;100568.19;;;-2.33;55.85
46714;BME280;32445;51.376;10.874;2023-01-29T02:49:24;100567.84;;;-2.41;56.23
46714;BME280;32445;51.376;10.874;2023-01-29T02:59:00;100565.03;;;-2.47;55.82
46714;BME280;32445;51.376;10.874;2023-01-29T03:02:07;100566.72;;;-2.48;56.16
46714;BME280;32445;51.376;10.874;2023-01-29T03:05:14;100563.22;;;-2.50;56.27
46714;BME280;32445;51.376;10.874;2023-01-29T03:08:38;100563.16;;;-2.51;56.43
46714;BME280;32445;51.376;10.874;2023-01-29T03:11:49;100568.19;;;-2.53;56.01
46714;BME280;32445;51.376;10.874;2023-01-29T03:14:51;100570.66;;;-2.54;56.22
46714;BME280;32445;51.376;10.874;2023-01-29T03:18:13;100570.59;;;-2.56;56.10
46714;BME280;32445;51.376;10.874;2023-01-29T03:21:27;100560.38;;;-2.57;56.20
46714;BME280;32445;51.376;10.874;2023-01-29T03:24:50;100561.97;;;-2.59;56.08
46714;BME280;32445;51.376;10.874;2023-01-29T03:28:14;100558.50;;;-2.62;56.17
46714;BME280;32445;51.376;10.874;2023-01-29T03:31:35;100568.59;;;-2.63;56.52
46714;BME280;32445;51.376;10.874;2023-01-29T03:35:00;100560.84;;;-2.66;56.29
46714;BME280;32445;51.376;10.874;2023-01-29T03:38:05;100557.41;;;-2.67;56.30
46714;BME280;32445;51.376;10.874;2023-01-29T03:41:15;100562.34;;;-2.70;56.45
46714;BME280;32445;51.376;10.874;2023-01-29T03:44:29;100571.66;;;-2.70;56.58
46714;BME280;32445;51.376;10.874;2023-01-29T03:51:14;100559.56;;;-2.76;56.55
46714;BME280;32445;51.376;10.874;2023-01-29T03:54:22;100560.34;;;-2.77;56.72
46714;BME280;32445;51.376;10.874;2023-01-29T04:00:39;100561.00;;;-2.81;56.42
46714;BME280;32445;51.376;10.874;2023-01-29T04:07:21;100554.72;;;-2.89;56.26
46714;BME280;32445;51.376;10.874;2023-01-29T04:10:26;100554.72;;;-2.89;56.42
46714;BME280;32445;51.376;10.874;2023-01-29T04:13:29;100552.91;;;-2.92;56.08
46714;BME280;32445;51.376;10.874;2023-01-29T04:16:36;100547.78;;;-2.93;56.69
46714;BME280;32445;51.376;10.874;2023-01-29T04:19:37;100540.88;;;-2.96;56.32
46714;BME280;32445;51.376;10.874;2023-01-29T04:22:39;100548.50;;;-2.96;56.44
46714;BME280;32445;51.376;10.874;2023-01-29T04:25:44;100551.81;;;-2.97;56.61
46714;BME280;32445;51.376;10.874;2023-01-29T04:29:00;100555.03;;;-3.01;56.49
46714;BME280;32445;51.376;10.874;2023-01-29T04:32:12;100553.31;;;-3.02;56.57
46714;BME280;32445;51.376;10.874;2023-01-29T04:39:05;100544.59;;;-3.07;56.45
46714;BME280;32445;51.376;10.874;2023-01-29T04:42:11;100533.56;;;-3.08;56.21
46714;BME280;32445;51.376;10.874;2023-01-29T04:49:08;100527.53;;;-3.10;56.52
46714;BME280;32445;51.376;10.874;2023-01-29T04:52:27;100518.03;;;-3.14;56.78
46714;BME280;32445;51.376;10.874;2023-01-29T04:58:48;100510.34;;;-3.16;56.25
46714;BME280;32445;51.376;10.874;2023-01-29T05:01:51;100507.03;;;-3.15;56.52
46714;BME280;32445;51.376;10.874;2023-01-29T05:04:53;100501.09;;;-3.15;56.45
46714;BME280;32445;51.376;10.874;2023-01-29T05:07:55;100498.53;;;-3.15;56.26
46714;BME280;32445;51.376;10.874;2023-01-29T05:10:58;100501.94;;;-3.15;56.86
46714;BME280;32445;51.376;10.874;2023-01-29T05:14:04;100507.88;;;-3.14;56.74
46714;BME280;32445;51.376;10.874;2023-01-29T05:17:11;100500.19;;;-3.16;56.65
46714;BME280;32445;51.376;10.874;2023-01-29T05:20:13;100496.00;;;-3.15;56.68
46714;BME280;32445;51.376;10.874;2023-01-29T05:23:19;100508.59;;;-3.17;56.54
46714;BME280;32445;51.376;10.874;2023-01-29T05:26:20;100498.44;;;-3.17;56.67
46714;BME280;32445;51.376;10.874;2023-01-29T05:29:44;100486.63;;;-3.16;56.69
46714;BME280;32445;51.376;10.874;2023-01-29T05:32:45;100473.94;;;-3.16;56.49
46714;BME280;32445;51.376;10.874;2023-01-29T05:35:48;100471.47;;;-3.15;57.03
46714;BME280;32445;51.376;10.874;2023-01-29T05:38:49;100463.00;;;-3.15;56.95
46714;BME280;32445;51.376;10.874;2023-01-29T05:41:50;100457.81;;;-3.17;56.58
46714;BME280;32445;51.376;10.874;2023-01-29T05:44:50;100451.09;;;-3.16;57.29
46714;BME280;32445;51.376;10.874;2023-01-29T05:47:57;100450.13;;;-3.18;56.93
46714;BME280;32445;51.376;10.874;2023-01-29T05:51:02;100445.94;;;-3.18;56.93
46714;BME280;32445;51.376;10.874;2023-01-29T05:54:03;100455.22;;;-3.18;57.04
46714;BME280;32445;51.376;10.874;2023-01-29T05:57:03;100454.34;;;-3.19;57.32
46714;BME280;32445;51.376;10.874;2023-01-29T06:00:04;100460.22;;;-3.20;57.12
46714;BME280;32445;51.376;10.874;2023-01-29T06:03:05;100462.81;;;-3.18;57.15
46714;BME280;32445;51.376;10.874;2023-01-29T06:06:06;100476.41;;;-3.18;56.74
46714;BME280;32445;51.376;10.874;2023-01-29T06:09:09;100472.97;;;-3.18;57.07
46714;BME280;32445;51.376;10.874;2023-01-29T06:12:09;100489.03;;;-3.19;57.04
46714;BME280;32445;51.376;10.874;2023-01-29T06:15:10;100493.22;;;-3.20;56.89
46714;BME280;32445;51.376;10.874;2023-01-29T06:18:11;100491.50;;;-3.21;57.01
46714;BME280;32445;51.376;10.874;2023-01-29T06:21:12;100504.22;;;-3.21;57.07
46714;BME280;32445;51.376;10.874;2023-01-29T06:24:13;100507.59;;;-3.20;57.28
46714;BME280;32445;51.376;10.874;2023-01-29T06:27:13;100504.22;;;-3.21;57.22
46714;BME280;32445;51.376;10.874;2023-01-29T06:30:14;100522.00;;;-3.21;57.03
46714;BME280;32445;51.376;10.874;2023-01-29T06:33:14;100512.69;;;-3.20;57.04
46714;BME280;32445;51.376;10.874;2023-01-29T06:36:15;100511.97;;;-3.18;57.31
46714;BME280;32445;51.376;10.874;2023-01-29T06:39:15;100520.44;;;-3.17;57.33
46714;BME280;32445;51.376;10.874;2023-01-29T06:42:15;100527.28;;;-3.16;57.32
46714;BME280;32445;51.376;10.874;2023-01-29T06:45:16;100533.28;;;-3.14;57.29
46714;BME280;32445;51.376;10.874;2023-01-29T06:48:16;100528.19;;;-3.14;56.99
46714;BME280;32445;51.376;10.874;2023-01-29T06:51:17;100530.81;;;-3.13;57.36
46714;BME280;32445;51.376;10.874;2023-01-29T06:54:17;100530.97;;;-3.09;57.15
46714;BME280;32445;51.376;10.874;2023-01-29T06:57:18;100548.94;;;-3.05;57.37
46714;BME280;32445;51.376;10.874;2023-01-29T07:00:18;100556.72;;;-3.02;57.19
46714;BME280;32445;51.376;10.874;2023-01-29T07:03:20;100556.06;;;-2.98;57.47
46714;BME280;32445;51.376;10.874;2023-01-29T07:06:20;100573.13;;;-2.95;57.21
46714;BME280;32445;51.376;10.874;2023-01-29T07:09:21;100569.69;;;-2.96;57.31
46714;BME280;32445;51.376;10.874;2023-01-29T07:12:21;100571.50;;;-2.93;57.29
46714;BME280;32445;51.376;10.874;2023-01-29T07:15:22;100570.69;;;-2.92;57.69
46714;BME280;32445;51.376;10.874;2023-01-29T07:18:22;100577.66;;;-2.88;57.59
46714;BME280;32445;51.376;10.874;2023-01-29T07:21:22;100574.53;;;-2.82;57.57
46714;BME280;32445;51.376;10.874;2023-01-29T07:24:23;100570.44;;;-2.79;57.66
46714;BME280;32445;51.376;10.874;2023-01-29T07:27:24;100569.00;;;-2.73;57.80
46714;BME280;32445;51.376;10.874;2023-01-29T07:30:25;100567.31;;;-2.73;57.53
46714;BME280;32445;51.376;10.874;2023-01-29T07:33:25;100572.66;;;-2.67;57.96
46714;BME280;32445;51.376;10.874;2023-01-29T07:36:25;100551.66;;;-2.63;57.74
46714;BME280;32445;51.376;10.874;2023-01-29T07:39:26;100543.38;;;-2.58;57.94
46714;BME280;32445;51.376;10.874;2023-01-29T07:42:26;100538.47;;;-2.54;57.79
46714;BME280;32445;51.376;10.874;2023-01-29T07:45:27;100537.88;;;-2.48;58.15
46714;BME280;32445;51.376;10.874;2023-01-29T07:48:28;100532.06;;;-2.46;58.11
46714;BME280;32445;51.376;10.874;2023-01-29T07:51:28;100531.31;;;-2.43;58.58
46714;BME280;32445;51.376;10.874;2023-01-29T07:54:29;100527.22;;;-2.39;58.37
46714;BME280;32445;51.376;10.874;2023-01-29T07:57:30;100531.69;;;-2.34;58.46
46714;BME280;32445;51.376;10.874;2023-01-29T08:00:30;100545.56;;;-2.27;58.60
46714;BME280;32445;51.376;10.874;2023-01-29T08:03:31;100533.09;;;-2.21;59.02
46714;BME280;32445;51.376;10.874;2023-01-29T08:06:31;100502.91;;;-2.13;58.57
46714;BME280;32445;51.376;10.874;2023-01-29T08:09:31;100510.72;;;-2.09;58.53
46714;BME280;32445;51.376;10.874;2023-01-29T08:12:32;100517.72;;;-2.03;58.69
46714;BME280;32445;51.376;10.874;2023-01-29T08:15:32;100514.50;;;-1.99;58.86
46714;BME280;32445;51.376;10.874;2023-01-29T08:18:33;100541.88;;;-1.93;59.08
46714;BME280;32445;51.376;10.874;2023-01-29T08:21:33;100547.22;;;-1.87;59.54
46714;BME280;32445;51.376;10.874;2023-01-29T08:24:33;100545.69;;;-1.83;59.16
46714;BME280;32445;51.376;10.874;2023-01-29T08:27:34;100579.00;;;-1.77;59.43
46714;BME280;32445;51.376;10.874;2023-01-29T08:30:36;100586.88;;;-1.71;59.68
46714;BME280;32445;51.376;10.874;2023-01-29T08:33:36;100570.19;;;-1.64;59.63
46714;BME280;32445;51.376;10.874;2023-01-29T08:36:37;100566.03;;;-1.62;59.73
46714;BME280;32445;51.376;10.874;2023-01-29T08:39:37;100567.94;;;-1.57;60.05
46714;BME280;32445;51.376;10.874;2023-01-29T08:42:37;100552.84;;;-1.52;60.01
46714;BME280;32445;51.376;10.874;2023-01-29T08:45:41;100541.19;;;-1.47;60.31
46714;BME280;32445;51.376;10.874;2023-01-29T08:48:42;100530.34;;;-1.41;60.59
46714;BME280;32445;51.376;10.874;2023-01-29T08:51:42;100512.69;;;-1.36;60.79
46714;BME280;32445;51.376;10.874;2023-01-29T08:54:43;100513.00;;;-1.29;60.92
46714;BME280;32445;51.376;10.874;2023-01-29T08:57:43;100496.19;;;-1.24;61.06
46714;BME280;32445;51.376;10.874;2023-01-29T09:00:44;100511.78;;;-1.16;60.32
46714;BME280;32445;51.376;10.874;2023-01-29T09:03:44;100504.31;;;-1.11;61.50
46714;BME280;32445;51.376;10.874;2023-01-29T09:06:45;100495.28;;;-1.03;61.09
46714;BME280;32445;51.376;10.874;2023-01-29T09:09:45;100474.31;;;-0.96;61.14
46714;BME280;32445;51.376;10.874;2023-01-29T09:12:46;100477.91;;;-0.89;61.08
46714;BME280;32445;51.376;10.874;2023-01-29T09:15:46;100478.97;;;-0.84;61.11
46714;BME280;32445;51.376;10.874;2023-01-29T09:18:46;100487.66;;;-0.79;61.18
46714;BME280;32445;51.376;10.874;2023-01-29T09:21:47;100484.50;;;-0.72;61.17
46714;BME280;32445;51.376;10.874;2023-01-29T09:24:48;100483.91;;;-0.64;61.07
46714;BME280;32445;51.376;10.874;2023-01-29T09:27:49;100484.16;;;-0.57;61.69
46714;BME280;32445;51.376;10.874;2023-01-29T09:30:49;100474.16;;;-0.50;61.42
46714;BME280;32445;51.376;10.874;2023-01-29T09:33:50;100485.44;;;-0.44;61.30
46714;BME280;32445;51.376;10.874;2023-01-29T09:36:51;100485.66;;;-0.38;62.10
46714;BME280;32445;51.376;10.874;2023-01-29T09:39:51;100494.34;;;-0.32;62.17
46714;BME280;32445;51.376;10.874;2023-01-29T09:46:18;100502.34;;;-0.22;62.00
46714;BME280;32445;51.376;10.874;2023-01-29T09:49:30;100492.25;;;-0.19;62.03
46714;BME280;32445;51.376;10.874;2023-01-29T09:52:35;100481.31;;;-0.14;62.13
46714;BME280;32445;51.376;10.874;2023-01-29T09:55:41;100479.84;;;-0.08;62.10
46714;BME280;32445;51.376;10.874;2023-01-29T09:58:43;100470.66;;;-0.03;62.31
46714;BME280;32445;51.376;10.874;2023-01-29T10:14:53;100461.50;;;0.31;61.11
46714;BME280;32445;51.376;10.874;2023-01-29T10:22:03;100451.75;;;0.47;60.80
46714;BME280;32445;51.376;10.874;2023-01-29T10:25:15;100455.28;;;0.50;60.82
46714;BME280;32445;51.376;10.874;2023-01-29T10:28:19;100446.94;;;0.56;60.93
46714;BME280;32445;51.376;10.874;2023-01-29T10:31:31;100447.81;;;0.58;60.50
46714;BME280;32445;51.376;10.874;2023-01-29T10:34:35;100437.84;;;0.66;60.80
46714;BME280;32445;51.376;10.874;2023-01-29T10:37:40;100434.50;;;0.68;60.55
46714;BME280;32445;51.376;10.874;2023-01-29T10:40:46;100422.69;;;0.72;60.42
46714;BME280;32445;51.376;10.874;2023-01-29T10:50:51;100427.53;;;0.93;60.54
46714;BME280;32445;51.376;10.874;2023-01-29T10:54:06;100430.25;;;0.99;59.78
46714;BME280;32445;51.376;10.874;2023-01-29T11:00:32;100411.53;;;1.00;60.16
46714;BME280;32445;51.376;10.874;2023-01-29T11:03:34;100408.31;;;1.08;59.95
46714;BME280;32445;51.376;10.874;2023-01-29T11:06:35;100393.91;;;1.11;59.60
46714;BME280;32445;51.376;10.874;2023-01-29T11:09:54;100392.31;;;1.15;59.44
46714;BME280;32445;51.376;10.874;2023-01-29T11:12:57;100389.03;;;1.19;59.44
46714;BME280;32445;51.376;10.874;2023-01-29T11:15:58;100374.50;;;1.18;59.53
46714;BME280;32445;51.376;10.874;2023-01-29T11:19:00;100370.28;;;1.20;58.99
46714;BME280;32445;51.376;10.874;2023-01-29T11:22:00;100361.81;;;1.23;58.90
46714;BME280;32445;51.376;10.874;2023-01-29T11:28:40;100368.03;;;1.32;59.08
46714;BME280;32445;51.376;10.874;2023-01-29T11:31:41;100358.03;;;1.42;58.56
46714;BME280;32445;51.376;10.874;2023-01-29T11:35:04;100355.53;;;1.45;58.99
46714;BME280;32445;51.376;10.874;2023-01-29T11:38:26;100345.50;;;1.52;58.24
46714;BME280;32445;51.376;10.874;2023-01-29T11:41:27;100344.09;;;1.65;58.04
46714;BME280;32445;51.376;10.874;2023-01-29T11:47:31;100333.19;;;1.72;58.41
46714;BME280;32445;51.376;10.874;2023-01-29T11:50:32;100329.91;;;1.78;58.23
46714;BME280;32445;51.376;10.874;2023-01-29T11:53:44;100320.69;;;1.86;57.83
46714;BME280;32445;51.376;10.874;2023-01-29T11:56:48;100320.75;;;1.89;57.77
46714;BME280;32445;51.376;10.874;2023-01-29T11:59:51;100318.19;;;1.89;57.52
46714;BME280;32445;51.376;10.874;2023-01-29T12:02:55;100322.53;;;1.92;57.52
46714;BME280;32445;51.376;10.874;2023-01-29T12:05:59;100324.31;;;1.96;57.65
46714;BME280;32445;51.376;10.874;2023-01-29T12:09:08;100312.44;;;2.00;57.69
46714;BME280;32445;51.376;10.874;2023-01-29T12:12:28;100305.78;;;2.06;57.54
46714;BME280;32445;51.376;10.874;2023-01-29T12:15:29;100299.09;;;2.15;57.50
46714;BME280;32445;51.376;10.874;2023-01-29T12:18:35;100295.78;;;2.20;57.23
46714;BME280;32445;51.376;10.874;2023-01-29T12:21:45;100289.91;;;2.24;56.69
46714;BME280;32445;51.376;10.874;2023-01-29T12:25:32;100273.00;;;2.33;56.85
46714;BME280;32445;51.376;10.874;2023-01-29T12:31:42;100271.47;;;2.42;57.27
46714;BME280;32445;51.376;10.874;2023-01-29T12:34:51;100264.66;;;2.45;56.72
46714;BME280;32445;51.376;10.874;2023-01-29T12:38:18;100261.19;;;2.41;56.83
46714;BME280;32445;51.376;10.874;2023-01-29T12:41:36;100247.47;;;2.39;56.56
46714;BME280;32445;51.376;10.874;2023-01-29T12:44:58;100234.56;;;2.33;56.30
46714;BME280;32445;51.376;10.874;2023-01-29T12:48:07;100228.66;;;2.37;56.80
46714;BME280;32445;51.376;10.874;2023-01-29T12:51:14;100221.03;;;2.40;56.54
46714;BME280;32445;51.376;10.874;2023-01-29T12:54:25;100213.41;;;2.43;56.11
46714;BME280;32445;51.376;10.874;2023-01-29T13:00:59;100207.41;;;2.41;56.56
46714;BME280;32445;51.376;10.874;2023-01-29T13:04:21;100198.03;;;2.45;56.67
46714;BME280;32445;51.376;10.874;2023-01-29T13:07:31;100186.13;;;2.47;55.65
46714;BME280;32445;51.376;10.874;2023-01-29T13:10:39;100182.66;;;2.45;56.18
46714;BME280;32445;51.376;10.874;2023-01-29T13:13:47;100187.84;;;2.48;56.23
46714;BME280;32445;51.376;10.874;2023-01-29T13:16:56;100185.31;;;2.49;56.49
46714;BME280;32445;51.376;10.874;2023-01-29T13:20:09;100176.03;;;2.56;55.79
46714;BME280;32445;51.376;10.874;2023-01-29T13:23:29;100174.44;;;2.61;56.29
46714;BME280;32445;51.376;10.874;2023-01-29T13:26:31;100174.44;;;2.63;55.70
46714;BME280;32445;51.376;10.874;2023-01-29T13:29:33;100175.31;;;2.65;55.96
46714;BME280;32445;51.376;10.874;2023-01-29T13:32:34;100176.25;;;2.68;55.87
46714;BME280;32445;51.376;10.874;2023-01-29T13:35:37;100169.47;;;2.72;56.29
46714;BME280;32445;51.376;10.874;2023-01-29T13:38:40;100172.03;;;2.72;55.52
46714;BME280;32445;51.376;10.874;2023-01-29T13:41:44;100160.84;;;2.67;55.75
46714;BME280;32445;51.376;10.874;2023-01-29T13:44:49;100172.75;;;2.65;55.74
46714;BME280;32445;51.376;10.874;2023-01-29T13:47:51;100164.00;;;2.52;55.58
46714;BME280;32445;51.376;10.874;2023-01-29T13:50:54;100171.66;;;2.50;55.24
46714;BME280;32445;51.376;10.874;2023-01-29T13:54:07;100169.84;;;2.45;55.27
46714;BME280;32445;51.376;10.874;2023-01-29T13:57:54;100170.63;;;2.40;56.19
46714;BME280;32445;51.376;10.874;2023-01-29T14:00:54;100172.38;;;2.41;55.82
46714;BME280;32445;51.376;10.874;2023-01-29T14:03:55;100162.91;;;2.39;55.46
46714;BME280;32445;51.376;10.874;2023-01-29T14:06:57;100162.00;;;2.34;55.46
46714;BME280;32445;51.376;10.874;2023-01-29T14:19:20;100157.63;;;2.28;55.83
46714;BME280;32445;51.376;10.874;2023-01-29T14:22:26;100153.34;;;2.29;55.75
46714;BME280;32445;51.376;10.874;2023-01-29T14:25:32;100155.13;;;2.33;55.97
46714;BME280;32445;51.376;10.874;2023-01-29T14:28:33;100134.66;;;2.34;55.92
46714;BME280;32445;51.376;10.874;2023-01-29T14:34:47;100135.50;;;2.33;55.97
46714;BME280;32445;51.376;10.874;2023-01-29T14:37:50;100138.03;;;2.32;56.22
46714;BME280;32445;51.376;10.874;2023-01-29T14:41:02;100137.19;;;2.31;55.97
46714;BME280;32445;51.376;10.874;2023-01-29T14:50:49;100144.78;;;2.25;56.23
46714;BME280;32445;51.376;10.874;2023-01-29T14:54:21;100142.16;;;2.23;55.78
46714;BME280;32445;51.376;10.874;2023-01-29T14:57:24;100136.16;;;2.21;55.67
46714;BME280;32445;51.376;10.874;2023-01-29T15:00:28;100135.31;;;2.22;56.43
46714;BME280;32445;51.376;10.874;2023-01-29T15:03:45;100144.63;;;2.19;56.00
46714;BME280;32445;51.376;10.874;2023-01-29T15:07:00;100142.94;;;2.18;55.82
46714;BME280;32445;51.376;10.874;2023-01-29T15:13:36;100149.81;;;2.22;55.81
46714;BME280;32445;51.376;10.874;2023-01-29T15:23:33;100143.84;;;2.23;56.36
46714;BME280;32445;51.376;10.874;2023-01-29T15:26:34;100143.84;;;2.23;55.88
46714;BME280;32445;51.376;10.874;2023-01-29T15:29:36;100141.28;;;2.23;56.47
46714;BME280;32445;51.376;10.874;2023-01-29T15:32:38;100149.09;;;2.29;56.36
46714;BME280;32445;51.376;10.874;2023-01-29T15:35:42;100138.94;;;2.34;55.76
46714;BME280;32445;51.376;10.874;2023-01-29T15:38:42;100140.59;;;2.32;55.68
46714;BME280;32445;51.376;10.874;2023-01-29T15:41:44;100136.34;;;2.32;55.89
46714;BME280;32445;51.376;10.874;2023-01-29T15:44:44;100132.06;;;2.31;56.02
46714;BME280;32445;51.376;10.874;2023-01-29T15:47:45;100135.47;;;2.32;55.77
46714;BME280;32445;51.376;10.874;2023-01-29T15:50:46;100132.03;;;2.30;55.95
46714;BME280;32445;51.376;10.874;2023-01-29T15:54:02;100132.06;;;2.31;56.04
46714;BME280;32445;51.376;10.874;2023-01-29T15:57:04;100134.63;;;2.31;55.99
46714;BME280;32445;51.376;10.874;2023-01-29T16:00:07;100121.78;;;2.30;55.79
46714;BME280;32445;51.376;10.874;2023-01-29T16:03:25;100126.84;;;2.27;56.25
46714;BME280;32445;51.376;10.874;2023-01-29T16:06:34;100128.56;;;2.28;56.34
46714;BME280;32445;51.376;10.874;2023-01-29T16:09:36;100125.13;;;2.25;56.05
46714;BME280;32445;51.376;10.874;2023-01-29T16:12:37;100123.41;;;2.26;56.25
46714;BME280;32445;51.376;10.874;2023-01-29T16:15:38;100124.31;;;2.28;56.36
46714;BME280;32445;51.376;10.874;2023-01-29T16:18:53;100121.78;;;2.30;55.53
46714;BME280;32445;51.376;10.874;2023-01-29T16:21:55;100117.50;;;2.30;56.07
46714;BME280;32445;51.376;10.874;2023-01-29T16:25:06;100124.34;;;2.30;55.44
46714;BME280;32445;51.376;10.874;2023-01-29T16:28:08;100111.53;;;2.30;56.02
46714;BME280;32445;51.376;10.874;2023-01-29T16:31:10;100107.25;;;2.29;55.75
46714;BME280;32445;51.376;10.874;2023-01-29T16:37:27;100114.03;;;2.25;55.61
46714;BME280;32445;51.376;10.874;2023-01-29T16:40:33;100110.56;;;2.23;56.16
46714;BME280;32445;51.376;10.874;2023-01-29T16:46:45;100113.06;;;2.20;56.00
46714;BME280;32445;51.376;10.874;2023-01-29T16:49:50;100116.41;;;2.16;55.55
46714;BME280;32445;51.376;10.874;2023-01-29T16:52:56;100106.97;;;2.13;56.19
46714;BME280;32445;51.376;10.874;2023-01-29T16:56:04;100102.75;;;2.15;55.96
46714;BME280;32445;51.376;10.874;2023-01-29T16:59:16;100101.88;;;2.15;55.72
46714;BME280;32445;51.376;10.874;2023-01-29T17:02:20;100095.03;;;2.14;55.69
46714;BME280;32445;51.376;10.874;2023-01-29T17:05:26;100088.16;;;2.11;55.54
46714;BME280;32445;51.376;10.874;2023-01-29T17:08:32;100088.13;;;2.10;55.60
46714;BME280;32445;51.376;10.874;2023-01-29T17:11:36;100092.41;;;2.11;55.85
46714;BME280;32445;51.376;10.874;2023-01-29T17:14:37;100086.44;;;2.10;55.89
46714;BME280;32445;51.376;10.874;2023-01-29T17:17:41;100082.13;;;2.09;55.26
46714;BME280;32445;51.376;10.874;2023-01-29T17:20:41;100076.16;;;2.08;55.72
46714;BME280;32445;51.376;10.874;2023-01-29T17:23:41;100073.56;;;2.07;55.06
46714;BME280;32445;51.376;10.874;2023-01-29T17:26:42;100069.28;;;2.06;55.63
46714;BME280;32445;51.376;10.874;2023-01-29T17:29:42;100065.00;;;2.05;55.89
46714;BME280;32445;51.376;10.874;2023-01-29T17:32:43;100058.16;;;2.04;55.22
46714;BME280;32445;51.376;10.874;2023-01-29T17:35:44;100064.94;;;2.02;55.72
46714;BME280;32445;51.376;10.874;2023-01-29T17:38:44;100045.25;;;1.98;55.99
46714;BME280;32445;51.376;10.874;2023-01-29T17:41:53;100049.50;;;1.97;55.77
46714;BME280;32445;51.376;10.874;2023-01-29T17:44:53;100046.91;;;1.96;55.69
46714;BME280;32445;51.376;10.874;2023-01-29T17:47:54;100033.25;;;1.94;56.14
46714;BME280;32445;51.376;10.874;2023-01-29T17:50:57;100046.88;;;1.94;55.94
46714;BME280;32445;51.376;10.874;2023-01-29T17:53:58;100039.13;;;1.88;55.81
46714;BME280;32445;51.376;10.874;2023-01-29T17:56:59;100028.84;;;1.86;56.29
46714;BME280;32445;51.376;10.874;2023-01-29T17:59:59;100022.88;;;1.87;56.17
46714;BME280;32445;51.376;10.874;2023-01-29T18:02:59;100019.53;;;1.92;56.02
46714;BME280;32445;51.376;10.874;2023-01-29T18:06:07;100013.56;;;1.91;55.88